Main page
METAR-TAF:

METAR-TAF

Airports :

Air Force Station

Cape Canaveral, Florida, United States

latitude: 28-28N, longitude: 080-33W, elevation: 10 ft

Current weather observation

The report was made 29 minutes ago, at 12:10 UTC
Wind 18 mph from the East/Northeast with gusts up to 25 mph
Temperature 81°F
Humidity 70%
Pressure 30.03 in. Hg
Visibility: 10 miles
Few clouds at a height of 2300 ft
Few clouds at a height of 3400 ft
Scattered clouds at a height of 5000 ft

METAR: KXMR 211210Z AUTO 06016G22KT 10SM FEW023 FEW034 SCT050 27/21 A3003 RMK AO2 DZB00E10 SLP172 $

Time: 08:39 (12:39 UTC)


TAF: missing

Weather observations and forecasts of more than 4000 airports (METAR and TAF reports).

The available stations are represented by yellow and red dots on the map.

Hover mouse over dot to see the name of the station.

Then click to see weather observations and forecasts.

To change the map : click on the green buttons with a black cross to zoom in, on the green button with a dash to zoom out, or on the green arrows for adjacent maps.


METAR-TAF: